Flight Track Log - Related Links

Times and Time Zones

All times are in EDT time to prevent confusion due to time zone crossing. See the AWE754 flight status page for this flight to view local times or setup timezone preferences in your user account.

Time Position Orientation Groundspeed Altitude Reporting Facility
EDT Latitude Longitude Course Direction KTS MPH feet Rate Location/Type
Sat 01:55:10 PM 28.4167 -81.3167 350° North 184 212 500  Level Orlando TRACON
Sat 01:56:22 PM 28.3500 -81.3333 192° South 224 258 2,200 1,810 Climbing Orlando TRACON
Sat 01:57:16 PM 28.3000 -81.3500 196° South 243 280 4,300 2,263 Climbing Orlando TRACON
Sat 01:58:00 PM 28.8336 -81.3500 355° North  Level FlightAware Approximate
Sat 01:58:16 PM 28.3000 -81.4333 270° West 247 284 6,500  Level Orlando TRACON
Sat 01:59:00 PM 28.9387 -81.3605 355° North  Level FlightAware Approximate
Sat 01:59:17 PM 28.3167 -81.5000 286° West 264 304 8,000  Level Orlando TRACON
Sat 02:00:00 PM 29.0432 -81.3753 350° North  Level FlightAware Approximate
Sat 02:00:17 PM 28.3333 -81.5833 283° West 266 306 8,000  Level Orlando TRACON
Sat 02:01:17 PM 28.4167 -81.5833 360° North 293 337 9,200 1,300 Climbing Orlando TRACON
Sat 02:02:17 PM 28.5000 -81.5833 360° North 306 352 10,600 1,430 Climbing Orlando TRACON
Sat 02:04:09 PM 28.6922 -81.6028 355° North 399 459 13,300 1,500 Climbing Jacksonville Center
Sat 02:05:09 PM 28.7925 -81.6014 North 379 436 14,900 1,500 Climbing Jacksonville Center
Sat 02:06:09 PM 28.8967 -81.5764 12° North 369 425 16,300 1,300 Climbing Jacksonville Center
Sat 02:07:09 PM 29.0094 -81.5844 356° North 380 437 17,500 1,200 Climbing Jacksonville Center
Sat 02:08:09 PM 29.1222 -81.5947 355° North 396 456 18,700 1,200 Climbing Jacksonville Center
Sat 02:09:09 PM 29.2267 -81.6006 357° North 407 468 19,900 1,150 Climbing Jacksonville Center
Sat 02:10:09 PM 29.3456 -81.6108 356° North 412 474 21,000 1,150 Climbing Jacksonville Center
Sat 02:11:09 PM 29.4647 -81.6214 356° North 423 487 22,200 1,000 Climbing Jacksonville Center
Sat 02:12:09 PM 29.5900 -81.6292 357° North 428 493 23,000 900 Climbing Jacksonville Center
Sat 02:13:09 PM 29.7175 -81.6394 356° North 445 512 24,000 1,050 Climbing Jacksonville Center
Sat 02:14:09 PM 29.8469 -81.6450 358° North 450 518 25,100 1,000 Climbing Jacksonville Center
Sat 02:15:09 PM 29.9742 -81.6289 North 450 518 26,000 800 Climbing Jacksonville Center
Sat 02:16:09 PM 30.0992 -81.5864 16° North 457 526 26,700 700 Climbing Jacksonville Center
Sat 02:17:09 PM 30.2322 -81.5461 15° North 471 542 27,400 700 Climbing Jacksonville Center
Sat 02:18:09 PM 30.3800 -81.5081 13° North 484 557 28,100 700 Climbing Jacksonville Center
Sat 02:19:09 PM 30.5197 -81.4964 North 489 563 28,800 450 Climbing Jacksonville Center
Sat 02:20:09 PM 30.6575 -81.4797 North 489 563 29,000 100 Climbing Jacksonville Center
Sat 02:21:09 PM 30.7861 -81.4150 23° Northeast 494 568 29,000 100 Level Jacksonville Center
Sat 02:22:09 PM 30.9083 -81.3381 28° Northeast 494 568 29,200 450 Climbing Jacksonville Center
Sat 02:23:09 PM 31.0328 -81.2586 29° Northeast 494 568 29,900 650 Climbing Jacksonville Center
Sat 02:24:09 PM 31.1569 -81.1786 29° Northeast 504 580 30,500 600 Climbing Jacksonville Center
Sat 02:25:09 PM 31.2833 -81.0986 28° Northeast 504 580 31,100 650 Climbing Jacksonville Center
Sat 02:26:09 PM 31.4053 -81.0158 30° Northeast 499 574 31,800 800 Climbing Jacksonville Center
Sat 02:27:09 PM 31.5169 -80.9431 29° Northeast 499 574 32,700 900 Climbing Jacksonville Center
Sat 02:28:09 PM 31.6533 -80.8572 28° Northeast 499 574 33,600 850 Climbing Jacksonville Center
Sat 02:29:09 PM 31.7628 -80.7839 30° Northeast 494 568 34,400 700 Climbing Jacksonville Center
Sat 02:30:09 PM 31.9011 -80.6950 29° Northeast 500 575 35,000 300 Climbing Jacksonville Center
Sat 02:31:09 PM 32.0228 -80.6161 29° Northeast 494 568 35,000  Level Jacksonville Center
Sat 02:32:09 PM 32.1444 -80.5322 30° Northeast 495 570 35,000  Level Jacksonville Center
Sat 02:33:09 PM 32.2683 -80.4528 28° Northeast 500 575 35,000  Level Jacksonville Center
Sat 02:34:09 PM 32.3919 -80.3733 28° Northeast 500 575 35,000  Level Jacksonville Center
Sat 02:35:09 PM 32.5156 -80.2911 29° Northeast 495 570 35,000  Level Jacksonville Center
Sat 02:36:09 PM 32.6369 -80.2086 30° Northeast 495 570 35,000  Level Jacksonville Center
Sat 02:37:09 PM 32.7625 -80.1258 29° Northeast 495 570 35,000  Level Jacksonville Center
Sat 02:38:09 PM 32.8839 -80.0381 31° Northeast 495 570 35,000  Level Jacksonville Center
Sat 02:39:10 PM 33.0003 -79.9328 37° Northeast 508 585 35,000  Level Jacksonville Center
Sat 02:40:09 PM 33.1106 -79.8275 39° Northeast 508 585 35,000  Level Jacksonville Center
Sat 02:41:09 PM 33.2106 -79.7322 39° Northeast 513 590 35,000 -50 Level Jacksonville Center
Sat 02:42:09 PM 33.3206 -79.6264 39° Northeast 508 585 34,900  Descending Jacksonville Center
Sat 02:43:09 PM 33.4281 -79.5178 40° Northeast 508 585 35,000 50 Climbing Jacksonville Center
Sat 02:44:09 PM 33.5381 -79.4117 39° Northeast 508 585 35,000  Level Jacksonville Center
Sat 02:45:09 PM 33.6456 -79.3075 39° Northeast 508 585 35,000  Level Jacksonville Center
Sat 02:46:09 PM 33.7511 -79.2033 39° Northeast 508 585 35,000 -50 Level Jacksonville Center
Sat 02:47:09 PM 33.8586 -79.0939 40° Northeast 501 577 34,900  Descending Jacksonville Center
Sat 02:49:34 PM 34.1303 -78.8258 39° Northeast 504 580 35,000 29 Climbing Washington Center
Sat 02:50:33 PM 34.2417 -78.7169 39° Northeast 509 586 35,000  Level Washington Center
Sat 02:51:34 PM 34.3550 -78.6081 38° Northeast 509 586 35,000  Level Washington Center
Sat 02:52:34 PM 34.4619 -78.4964 41° Northeast 509 586 35,000  Level Washington Center
Sat 02:53:35 PM 34.5558 -78.4089 37° Northeast 520 598 35,000  Level Washington Center
Sat 02:54:33 PM 34.7003 -78.3000 32° Northeast 515 593 35,000  Level Washington Center
Sat 02:55:34 PM 34.7939 -78.2272 33° Northeast 510 587 35,000  Level Washington Center
Sat 02:56:34 PM 34.9236 -78.1125 36° Northeast 515 593 35,000 -350 Level Washington Center
Sat 02:57:34 PM 35.0422 -78.0197 33° Northeast 515 593 34,300 -807 Descending Washington Center
Sat 02:58:33 PM 35.1611 -77.9242 33° Northeast 515 593 33,400 -655 Descending Washington Center
Sat 02:59:33 PM 35.2775 -77.8283 34° Northeast 515 593 33,000 -200 Descending Washington Center
Sat 03:00:33 PM 35.3961 -77.7325 33° Northeast 510 587 33,000  Level Washington Center
Sat 03:01:34 PM 35.5189 -77.6336 33° Northeast 510 587 33,000  Level Washington Center
Sat 03:02:35 PM 35.6353 -77.5369 34° Northeast 510 587 33,000  Level Washington Center
Sat 03:03:35 PM 35.7558 -77.4400 33° Northeast 515 593 33,000  Level Washington Center
Sat 03:04:32 PM 35.8761 -77.3403 34° Northeast 515 593 33,000  Level Washington Center
Sat 03:05:33 PM 35.9967 -77.2403 34° Northeast 515 593 33,000  Level Washington Center
Sat 03:06:35 PM 36.1169 -77.1400 34° Northeast 520 598 33,000  Level Washington Center
Sat 03:07:33 PM 36.2414 -77.0317 35° Northeast 507 583 33,000 -51 Level Washington Center
Sat 03:08:33 PM 36.3636 -76.9306 34° Northeast 512 589 32,900  Descending Washington Center
Sat 03:09:34 PM 36.4708 -76.8422 34° Northeast 512 589 33,000 50 Climbing Washington Center
Sat 03:10:34 PM 36.6014 -76.7303 35° Northeast 512 589 33,000  Level Washington Center
Sat 03:11:35 PM 36.7000 -76.6489 33° Northeast 512 589 33,000 -403 Level Washington Center
Sat 03:12:33 PM 36.8325 -76.5314 35° Northeast 517 595 32,200 -966 Descending Washington Center
Sat 03:13:33 PM 36.9647 -76.4186 34° Northeast 517 595 31,100 -984 Descending Washington Center
Sat 03:14:35 PM 37.0864 -76.3131 35° Northeast 522 601 30,200 -934 Descending Washington Center
Sat 03:15:35 PM 37.2081 -76.2072 35° Northeast 527 606 29,200 -661 Descending Washington Center
Sat 03:16:33 PM 37.3336 -76.1064 33° Northeast 527 606 28,900 -661 Descending Washington Center
Sat 03:17:33 PM 37.4572 -75.9972 35° Northeast 532 612 27,900 -893 Descending Washington Center
Sat 03:18:34 PM 37.5658 -75.9036 34° Northeast 532 612 27,100 -900 Descending Washington Center
Sat 03:19:33 PM 37.6869 -75.7992 34° Northeast 532 612 26,100 -958 Descending Washington Center
Sat 03:20:33 PM 37.8039 -75.6942 35° Northeast 527 606 25,200 -545 Descending Washington Center
Sat 03:21:34 PM 37.9208 -75.5944 34° Northeast 516 594 25,000 -98 Descending Washington Center
Sat 03:22:35 PM 38.0356 -75.4889 36° Northeast 516 594 25,000 -496 Level Washington Center
Sat 03:23:35 PM 38.1606 -75.4094 27° Northeast 504 580 24,000 -1,780 Descending Washington Center
Sat 03:24:33 PM 38.2814 -75.3325 27° Northeast 486 559 21,500 -2,269 Descending Washington Center
Sat 03:25:34 PM 38.3936 -75.2525 29° Northeast 467 537 19,500 -2,100 Descending Washington Center
Sat 03:26:33 PM 38.5061 -75.1831 26° Northeast 457 526 17,300 -1,900 Descending Washington Center
Sat 03:27:34 PM 38.6100 -75.1081 29° Northeast 443 510 15,700 -1,289 Descending Washington Center
Sat 03:28:34 PM 38.7161 -75.0408 26° Northeast 423 487 14,700 -1,100 Descending Washington Center
Sat 03:29:34 PM 38.8178 -74.9842 23° Northeast 408 470 13,500 -893 Descending Washington Center
Sat 03:30:35 PM 38.9283 -74.9567 11° North 397 457 12,900 -744 Descending Washington Center
Sat 03:31:35 PM 39.0344 -74.9475 North 391 450 12,000 -908 Descending Washington Center
Sat 03:32:34 PM 39.1428 -74.9358 North 386 444 11,100 -776 Descending Washington Center
Sat 03:34:25 PM 39.3333 -74.9167 North 301 346 9,800 -842 Descending Philadelphia TRACON
Sat 03:35:25 PM 39.4167 -74.9333 351° North 292 336 8,700 -900 Descending Philadelphia TRACON
Sat 03:36:25 PM 39.4833 -74.9667 339° North 282 325 8,000 -842 Descending Philadelphia TRACON
Sat 03:37:19 PM 39.5500 -75.0000 339° North 282 325 7,100 -1,053 Descending Philadelphia TRACON
Sat 03:38:19 PM 39.6333 -75.0000 360° North 274 315 6,000 -524 Descending Philadelphia TRACON
Sat 03:39:25 PM 39.7167 -75.0167 351° North 268 308 6,000 -524 Level Philadelphia TRACON
Sat 03:40:25 PM 39.7833 -75.0333 349° North 264 304 4,900 -1,537 Descending Philadelphia TRACON
Sat 03:41:26 PM 39.8500 -75.0500 349° North 263 303 2,900 -1,967 Descending Philadelphia TRACON

Login

Don't have an account? Register now (free) for customized features, flight alerts, and more!